Time;durP1;ratioP1;P1;durP2;ratioP2;P2;SDS_P1;SDS_P2;PMS_P1;PMS_P2;Temp;Humidity;BMP_temperature;BMP_pressure;BME280_temperature;BME280_humidity;BME280_pressure;Samples;Min_cycle;Max_cycle;Signal;HPM_P1;HPM_P2
2022/11/16 00:01:48;;;;;;;;;;;10.40;99.90;;;;;;5071733;28;19928;-67
2022/11/16 00:04:13;;;;;;;;;;;10.40;99.90;;;;;;5070168;28;19920;-67
2022/11/16 00:06:39;;;;;;;;;;;10.40;99.90;;;;;;5073000;28;19921;-67
2022/11/16 00:09:24;;;;;;;;;;;10.40;99.90;;;;;;5071873;28;20354;-67
2022/11/16 00:11:51;;;;;;;;;;;10.40;99.90;;;;;;5071599;28;20393;-67
2022/11/16 00:14:18;;;;;;;;;;;10.40;99.90;;;;;;5073139;28;19974;-67
2022/11/16 00:16:43;;;;;;;;;;;10.40;99.90;;;;;;5069394;28;20265;-67
2022/11/16 00:19:09;;;;;;;;;;;10.40;99.90;;;;;;5071672;28;19921;-67
2022/11/16 00:21:35;;;;;;;;;;;10.40;99.90;;;;;;5058844;28;20341;-67
2022/11/16 00:24:01;;;;;;;;;;;10.40;99.90;;;;;;5051358;28;19929;-67
2022/11/16 00:26:26;;;;;;;;;;;10.30;99.90;;;;;;5052585;28;19928;-67
2022/11/16 00:28:52;;;;;;;;;;;10.40;99.90;;;;;;5065266;28;19932;-67
2022/11/16 00:31:18;;;;;;;;;;;10.40;99.90;;;;;;5065546;28;19990;-66
2022/11/16 00:33:44;;;;;;;;;;;10.40;99.90;;;;;;5051290;28;19929;-66
2022/11/16 00:36:10;;;;;;;;;;;10.40;99.90;;;;;;5064542;28;19927;-67
2022/11/16 00:38:36;;;;;;;;;;;10.40;99.90;;;;;;5071500;28;19932;-67
2022/11/16 00:41:02;;;;;;;;;;;10.30;99.90;;;;;;5072471;28;19990;-66
2022/11/16 00:43:28;;;;;;;;;;;10.40;99.90;;;;;;5070925;28;19928;-66
2022/11/16 00:45:53;;;;;;;;;;;10.50;99.90;;;;;;5072463;28;19920;-66
2022/11/16 00:48:19;;;;;;;;;;;10.50;99.90;;;;;;5072335;28;19927;-66
2022/11/16 00:50:44;;;;;;;;;;;10.40;99.90;;;;;;5051330;28;19963;-66
2022/11/16 00:53:15;;;;;;;;;;;10.40;99.90;;;;;;5052738;28;19925;-66
2022/11/16 00:55:42;;;;;;;;;;;10.40;99.90;;;;;;5072139;28;19973;-67
2022/11/16 00:58:07;;;;;;;;;;;10.50;99.90;;;;;;5071058;28;19925;-67
2022/11/16 01:00:33;;;;;;;;;;;10.50;99.90;;;;;;5070252;28;19920;-67
2022/11/16 01:02:58;;;;;;;;;;;10.50;99.90;;;;;;5067478;28;19965;-66
2022/11/16 01:05:24;;;;;;;;;;;10.50;99.90;;;;;;5067544;28;20382;-67
2022/11/16 01:07:49;;;;;;;;;;;10.40;99.90;;;;;;5072172;28;20372;-67
2022/11/16 01:10:16;;;;;;;;;;;10.40;99.90;;;;;;5070637;28;19938;-66
2022/11/16 01:12:42;;;;;;;;;;;10.50;99.90;;;;;;5071095;28;19920;-67
2022/11/16 01:15:08;;;;;;;;;;;10.50;99.90;;;;;;5072328;28;20358;-67
2022/11/16 01:17:34;;;;;;;;;;;10.40;99.90;;;;;;5071911;28;20009;-66
2022/11/16 01:19:59;;;;;;;;;;;10.50;99.90;;;;;;5061531;28;19925;-67
2022/11/16 01:22:25;;;;;;;;;;;10.50;99.90;;;;;;5052203;28;19927;-66
2022/11/16 01:24:50;;;;;;;;;;;10.50;99.90;;;;;;5065121;28;19931;-66
2022/11/16 01:27:16;;;;;;;;;;;10.50;99.90;;;;;;5072254;28;19920;-67
2022/11/16 01:29:41;;;;;;;;;;;10.50;99.90;;;;;;5072061;28;20249;-66
2022/11/16 01:32:07;;;;;;;;;;;10.50;99.90;;;;;;5072549;28;19920;-67
2022/11/16 01:34:32;;;;;;;;;;;10.50;99.90;;;;;;5066324;28;20336;-67
2022/11/16 01:36:57;;;;;;;;;;;10.50;99.90;;;;;;5052205;28;19921;-66
2022/11/16 01:39:23;;;;;;;;;;;10.50;99.90;;;;;;5036698;28;20232;-66
2022/11/16 01:41:48;;;;;;;;;;;10.50;99.90;;;;;;5071610;28;19924;-66
2022/11/16 01:44:14;;;;;;;;;;;10.50;99.90;;;;;;5072292;28;19932;-66
2022/11/16 01:46:40;;;;;;;;;;;10.50;99.90;;;;;;5071244;28;20485;-66
2022/11/16 01:49:13;;;;;;;;;;;10.60;99.90;;;;;;5052239;28;19978;-66
2022/11/16 01:51:39;;;;;;;;;;;10.50;99.90;;;;;;5065606;28;19927;-66
2022/11/16 01:54:06;;;;;;;;;;;10.50;99.90;;;;;;5072449;28;19973;-66
2022/11/16 01:56:32;;;;;;;;;;;10.50;99.90;;;;;;5070979;28;19920;-66
2022/11/16 01:58:57;;;;;;;;;;;10.60;99.90;;;;;;5072199;28;19944;-66
2022/11/16 02:01:23;;;;;;;;;;;10.60;99.90;;;;;;5070871;28;20263;-66
2022/11/16 02:03:48;;;;;;;;;;;10.60;99.90;;;;;;5072811;28;19920;-66
2022/11/16 02:06:20;;;;;;;;;;;10.60;99.90;;;;;;5075954;28;19991;-66
2022/11/16 02:12:07;;;;;;;;;;;10.50;99.90;;;;;;5057005;28;19974;-66
2022/11/16 02:14:51;;;;;;;;;;;10.60;99.90;;;;;;5055989;28;19928;-66
2022/11/16 02:17:17;;;;;;;;;;;10.60;99.90;;;;;;5055899;28;19928;-66
2022/11/16 02:20:01;;;;;;;;;;;10.60;99.90;;;;;;5064556;28;19921;-66
2022/11/16 02:22:45;;;;;;;;;;;10.60;99.90;;;;;;5055714;28;20242;-66
2022/11/16 02:25:16;;;;;;;;;;;10.60;99.90;;;;;;5071805;28;19931;-66
2022/11/16 02:27:41;;;;;;;;;;;10.60;99.90;;;;;;5073756;28;19924;-66
2022/11/16 02:30:07;;;;;;;;;;;10.60;99.90;;;;;;5056097;28;19932;-66
2022/11/16 02:32:35;;;;;;;;;;;10.60;99.90;;;;;;5072906;28;19999;-66
2022/11/16 02:35:06;;;;;;;;;;;10.60;99.90;;;;;;5072860;28;19939;-66
2022/11/16 02:37:37;;;;;;;;;;;10.60;99.90;;;;;;5063631;28;20275;-66
2022/11/16 02:40:05;;;;;;;;;;;10.60;99.90;;;;;;5066569;28;20370;-66
2022/11/16 02:42:38;;;;;;;;;;;10.60;99.90;;;;;;5069335;28;19974;-66
2022/11/16 02:45:05;;;;;;;;;;;10.60;99.90;;;;;;5061580;28;19952;-66
2022/11/16 02:47:32;;;;;;;;;;;10.60;99.90;;;;;;5064220;28;20307;-66
2022/11/16 02:50:01;;;;;;;;;;;10.60;99.90;;;;;;5075514;28;19932;-66
2022/11/16 02:52:27;;;;;;;;;;;10.60;99.90;;;;;;5075861;28;20290;-66
2022/11/16 02:54:53;;;;;;;;;;;10.60;99.90;;;;;;5072307;28;19920;-66
2022/11/16 02:57:26;;;;;;;;;;;10.60;99.90;;;;;;5071782;28;19925;-66
2022/11/16 02:59:53;;;;;;;;;;;10.60;99.90;;;;;;5069782;28;20386;-66
2022/11/16 03:02:23;;;;;;;;;;;10.60;99.90;;;;;;5072093;28;20003;-66
2022/11/16 03:04:52;;;;;;;;;;;10.60;99.90;;;;;;5072904;28;19928;-66
2022/11/16 03:07:20;;;;;;;;;;;10.60;99.90;;;;;;5075077;28;19921;-66
2022/11/16 03:09:47;;;;;;;;;;;10.60;99.90;;;;;;5074406;28;19947;-66
2022/11/16 03:12:15;;;;;;;;;;;10.60;99.90;;;;;;5074101;28;19920;-66
2022/11/16 03:14:47;;;;;;;;;;;10.60;99.90;;;;;;5072516;28;19931;-66
2022/11/16 03:17:33;;;;;;;;;;;10.60;99.90;;;;;;5060491;28;19921;-66
2022/11/16 03:20:05;;;;;;;;;;;10.60;99.90;;;;;;5060345;28;19921;-66
2022/11/16 03:22:37;;;;;;;;;;;10.50;99.90;;;;;;5074737;28;19924;-66
2022/11/16 03:25:04;;;;;;;;;;;10.50;99.90;;;;;;5072830;28;19920;-66
2022/11/16 03:27:35;;;;;;;;;;;10.60;99.90;;;;;;5073650;28;19921;-66
2022/11/16 03:30:04;;;;;;;;;;;10.50;99.90;;;;;;5071919;28;20388;-66
2022/11/16 03:32:30;;;;;;;;;;;10.60;99.90;;;;;;5065099;28;19921;-66
2022/11/16 03:34:58;;;;;;;;;;;10.50;99.90;;;;;;5072304;28;20315;-66
2022/11/16 03:37:24;;;;;;;;;;;10.50;99.90;;;;;;5037707;28;19933;-66
2022/11/16 03:39:51;;;;;;;;;;;10.50;99.90;;;;;;5074337;28;19920;-66
2022/11/16 03:42:17;;;;;;;;;;;10.50;99.90;;;;;;5074618;28;20337;-66
2022/11/16 03:44:43;;;;;;;;;;;10.50;99.90;;;;;;5073332;28;19928;-66
2022/11/16 03:47:10;;;;;;;;;;;10.60;99.90;;;;;;5062880;28;19921;-66
2022/11/16 03:49:35;;;;;;;;;;;10.50;99.90;;;;;;5073848;28;19931;-66
2022/11/16 03:52:01;;;;;;;;;;;10.50;99.90;;;;;;5073042;28;19921;-66
2022/11/16 03:54:26;;;;;;;;;;;10.50;99.90;;;;;;5071660;28;19985;-66
2022/11/16 03:56:52;;;;;;;;;;;10.50;99.90;;;;;;5074291;28;19935;-66
2022/11/16 03:59:17;;;;;;;;;;;10.50;99.90;;;;;;5072125;28;19924;-66
2022/11/16 04:01:43;;;;;;;;;;;10.50;99.90;;;;;;5065876;28;19927;-66
2022/11/16 04:24:10;;;;;;;;;;;10.50;99.90;;;;;;5062558;28;19920;-66
2022/11/16 04:26:14;;;;;;;;;;;10.50;99.90;;;;;;5073955;28;19924;-65
2022/11/16 04:28:40;;;;;;;;;;;10.50;99.90;;;;;;5073251;28;19924;-65
2022/11/16 04:39:18;;;;;;;;;;;10.40;99.90;;;;;;5065989;28;20359;-66
2022/11/16 04:47:05;;;;;;;;;;;10.40;99.90;;;;;;5054418;28;20410;-66
2022/11/16 04:47:13;;;;;;;;;;;10.40;99.90;;;;;;5069569;28;19928;-66
2022/11/16 04:49:39;;;;;;;;;;;10.40;99.90;;;;;;5073587;28;19925;-66
2022/11/16 04:52:04;;;;;;;;;;;10.40;99.90;;;;;;5078787;22;19928;-66
2022/11/16 04:54:30;;;;;;;;;;;10.40;99.90;;;;;;5019615;28;20251;-66
2022/11/16 04:56:55;;;;;;;;;;;10.40;99.90;;;;;;5034223;28;19967;-66
2022/11/16 04:59:21;;;;;;;;;;;10.40;99.90;;;;;;5033554;28;20334;-66
2022/11/16 05:04:30;;;;;;;;;;;10.40;99.90;;;;;;5007098;28;19925;-66
2022/11/16 05:06:55;;;;;;;;;;;10.40;99.90;;;;;;5014497;28;19926;-66
2022/11/16 05:09:21;;;;;;;;;;;10.40;99.90;;;;;;5022328;28;20345;-66
2022/11/16 05:11:46;;;;;;;;;;;10.30;99.90;;;;;;5034473;28;19921;-66
2022/11/16 05:14:12;;;;;;;;;;;10.40;99.90;;;;;;5016574;28;20279;-66
2022/11/16 05:16:37;;;;;;;;;;;10.30;99.90;;;;;;5016175;28;19921;-66
2022/11/16 05:21:47;;;;;;;;;;;10.40;99.90;;;;;;5014617;28;20345;-66
2022/11/16 05:26:57;;;;;;;;;;;10.40;99.90;;;;;;5031722;28;20007;-66
2022/11/16 05:29:22;;;;;;;;;;;10.30;99.90;;;;;;5019826;28;20016;-66
2022/11/16 05:31:48;;;;;;;;;;;10.30;99.90;;;;;;4999377;28;19967;-66
2022/11/16 05:34:13;;;;;;;;;;;10.40;99.90;;;;;;5026221;28;19929;-66
2022/11/16 05:36:39;;;;;;;;;;;10.40;99.90;;;;;;4996462;28;19922;-66
2022/11/16 05:39:05;;;;;;;;;;;10.40;99.90;;;;;;5017942;28;19980;-66
2022/11/16 05:41:30;;;;;;;;;;;10.40;99.90;;;;;;5017004;28;19983;-66
2022/11/16 05:43:56;;;;;;;;;;;10.40;99.90;;;;;;5036306;28;19921;-66
2022/11/16 05:46:22;;;;;;;;;;;10.40;99.90;;;;;;5037723;28;20015;-66
2022/11/16 05:48:47;;;;;;;;;;;10.40;99.90;;;;;;5037866;28;20030;-66
2022/11/16 05:51:13;;;;;;;;;;;10.40;99.90;;;;;;5003655;28;19921;-66
2022/11/16 05:53:39;;;;;;;;;;;10.40;99.90;;;;;;5037445;28;20367;-65
2022/11/16 05:56:04;;;;;;;;;;;10.40;99.90;;;;;;5019653;28;19929;-66
2022/11/16 05:58:30;;;;;;;;;;;10.40;99.90;;;;;;5027331;28;20353;-65
2022/11/16 06:00:56;;;;;;;;;;;10.40;99.90;;;;;;5013502;28;19960;-66
2022/11/16 06:03:22;;;;;;;;;;;10.40;99.90;;;;;;5034915;28;19925;-66
2022/11/16 06:05:47;;;;;;;;;;;10.40;99.90;;;;;;5029483;28;19976;-66
2022/11/16 06:08:13;;;;;;;;;;;10.40;99.90;;;;;;5023314;28;19928;-66
2022/11/16 06:10:38;;;;;;;;;;;10.40;99.90;;;;;;4983755;28;19993;-65
2022/11/16 06:13:04;;;;;;;;;;;10.40;99.90;;;;;;5000143;28;20298;-65
2022/11/16 06:15:29;;;;;;;;;;;10.40;99.90;;;;;;4999559;28;19933;-65
2022/11/16 06:17:55;;;;;;;;;;;10.40;99.90;;;;;;5032289;28;19928;-66
2022/11/16 06:20:20;;;;;;;;;;;10.30;99.90;;;;;;5035067;28;20014;-65
2022/11/16 06:22:46;;;;;;;;;;;10.40;99.90;;;;;;5001376;28;19921;-65
2022/11/16 06:25:11;;;;;;;;;;;10.40;99.90;;;;;;5030823;28;19926;-65
2022/11/16 06:27:38;;;;;;;;;;;10.40;99.90;;;;;;5000282;28;19922;-66
2022/11/16 06:30:04;;;;;;;;;;;10.40;99.90;;;;;;5029548;28;19925;-66
2022/11/16 06:32:30;;;;;;;;;;;10.30;99.90;;;;;;5037044;28;19927;-66
2022/11/16 06:34:55;;;;;;;;;;;10.40;99.90;;;;;;5036407;28;20012;-66
2022/11/16 06:37:21;;;;;;;;;;;10.40;99.90;;;;;;5036496;28;20345;-66
2022/11/16 06:39:46;;;;;;;;;;;10.30;99.90;;;;;;5035255;28;20282;-66
2022/11/16 06:42:12;;;;;;;;;;;10.30;99.90;;;;;;5036601;28;19921;-66
2022/11/16 06:44:37;;;;;;;;;;;10.40;99.90;;;;;;5036674;28;19977;-66
2022/11/16 06:47:03;;;;;;;;;;;10.30;99.90;;;;;;5036697;28;19929;-66
2022/11/16 06:49:29;;;;;;;;;;;10.30;99.90;;;;;;5018316;28;19925;-66
2022/11/16 06:51:55;;;;;;;;;;;10.30;99.90;;;;;;5018633;28;19983;-66
2022/11/16 06:54:21;;;;;;;;;;;10.30;99.90;;;;;;5036698;28;19925;-66
2022/11/16 06:56:46;;;;;;;;;;;10.30;99.90;;;;;;5036670;28;20362;-67
2022/11/16 06:59:12;;;;;;;;;;;10.30;99.90;;;;;;5036091;28;19921;-67
2022/11/16 07:01:37;;;;;;;;;;;10.30;99.90;;;;;;5018342;28;19961;-67
2022/11/16 07:04:03;;;;;;;;;;;10.30;99.90;;;;;;5036304;28;19925;-67
2022/11/16 07:06:29;;;;;;;;;;;10.30;99.90;;;;;;5035975;28;19975;-67
2022/11/16 07:08:54;;;;;;;;;;;10.30;99.90;;;;;;5016235;28;19925;-67
2022/11/16 07:11:20;;;;;;;;;;;10.30;99.90;;;;;;4998731;28;19921;-67
2022/11/16 07:13:47;;;;;;;;;;;10.30;99.90;;;;;;4998632;28;19991;-67
2022/11/16 07:16:13;;;;;;;;;;;10.30;99.90;;;;;;4998495;28;20399;-67
2022/11/16 07:18:39;;;;;;;;;;;10.20;99.90;;;;;;5016402;28;19988;-67
2022/11/16 07:21:05;;;;;;;;;;;10.30;99.90;;;;;;5016036;28;20343;-67
2022/11/16 07:23:31;;;;;;;;;;;10.20;99.90;;;;;;5016077;28;19922;-67
2022/11/16 07:25:58;;;;;;;;;;;10.30;99.90;;;;;;5015706;28;19921;-67
2022/11/16 07:28:24;;;;;;;;;;;10.20;99.90;;;;;;4983004;28;20032;-66
2022/11/16 07:30:49;;;;;;;;;;;10.20;99.90;;;;;;5017528;28;19996;-66
2022/11/16 07:33:15;;;;;;;;;;;10.20;99.90;;;;;;5015006;28;19921;-66
2022/11/16 07:35:41;;;;;;;;;;;10.30;99.90;;;;;;5033915;28;19925;-66
2022/11/16 07:38:06;;;;;;;;;;;10.20;99.90;;;;;;5035966;28;20047;-66
2022/11/16 07:40:32;;;;;;;;;;;10.20;99.90;;;;;;5016952;28;19944;-66
2022/11/16 07:42:57;;;;;;;;;;;10.20;99.90;;;;;;5038576;28;20007;-66
2022/11/16 07:45:23;;;;;;;;;;;10.20;99.90;;;;;;5039843;28;19921;-65
2022/11/16 07:47:51;;;;;;;;;;;10.20;99.90;;;;;;5014870;28;19922;-65
2022/11/16 07:50:16;;;;;;;;;;;10.20;99.90;;;;;;5026429;28;19932;-65
2022/11/16 07:52:45;;;;;;;;;;;10.30;99.90;;;;;;5038652;28;20457;-65
2022/11/16 07:55:11;;;;;;;;;;;10.30;99.90;;;;;;5038512;28;19922;-65
2022/11/16 07:57:36;;;;;;;;;;;10.30;99.90;;;;;;5046893;28;19921;-65
2022/11/16 08:00:03;;;;;;;;;;;10.20;99.90;;;;;;5016301;28;19932;-65
2022/11/16 08:02:28;;;;;;;;;;;10.20;99.90;;;;;;5029663;28;19963;-65
2022/11/16 08:04:54;;;;;;;;;;;10.20;99.90;;;;;;5032244;28;20008;-66
2022/11/16 08:07:19;;;;;;;;;;;10.20;99.90;;;;;;5034305;28;20458;-66
2022/11/16 08:09:45;;;;;;;;;;;10.30;99.90;;;;;;5038041;28;20016;-66
2022/11/16 08:12:10;;;;;;;;;;;10.30;99.90;;;;;;5027283;28;19927;-66
2022/11/16 08:14:36;;;;;;;;;;;10.30;99.90;;;;;;5018632;28;19921;-66
2022/11/16 08:17:02;;;;;;;;;;;10.20;99.90;;;;;;5010395;28;20008;-66
2022/11/16 08:19:29;;;;;;;;;;;10.20;99.90;;;;;;5035206;28;19921;-66
2022/11/16 08:21:54;;;;;;;;;;;10.20;99.90;;;;;;5015659;28;20007;-66
2022/11/16 08:24:20;;;;;;;;;;;10.20;99.90;;;;;;5038591;28;19956;-66
2022/11/16 08:26:45;;;;;;;;;;;10.30;99.90;;;;;;5013336;28;19971;-66
2022/11/16 08:29:11;;;;;;;;;;;10.20;99.90;;;;;;5035154;28;19939;-66
2022/11/16 08:31:37;;;;;;;;;;;10.30;99.90;;;;;;5041559;28;20048;-66
2022/11/16 08:34:02;;;;;;;;;;;10.20;99.90;;;;;;5054638;28;20251;-66
2022/11/16 08:36:27;;;;;;;;;;;10.20;99.90;;;;;;5038414;28;19971;-66
2022/11/16 08:38:53;;;;;;;;;;;10.30;99.90;;;;;;5016941;28;20015;-66
2022/11/16 08:41:19;;;;;;;;;;;10.30;99.90;;;;;;5039968;28;19928;-66
2022/11/16 08:43:47;;;;;;;;;;;10.20;99.90;;;;;;5043673;28;19921;-66
2022/11/16 08:46:13;;;;;;;;;;;10.20;99.90;;;;;;5019326;28;19964;-66
2022/11/16 08:48:38;;;;;;;;;;;10.20;99.90;;;;;;5032650;28;19927;-66
2022/11/16 08:51:05;;;;;;;;;;;10.20;99.90;;;;;;5000879;28;19925;-66
2022/11/16 08:53:31;;;;;;;;;;;10.20;99.90;;;;;;5020961;28;19925;-66
2022/11/16 08:56:00;;;;;;;;;;;10.30;99.90;;;;;;5027832;28;19925;-66
2022/11/16 08:58:26;;;;;;;;;;;10.30;99.90;;;;;;5008880;28;19921;-66
2022/11/16 09:00:51;;;;;;;;;;;10.30;99.90;;;;;;5005603;28;19936;-66
2022/11/16 09:03:17;;;;;;;;;;;10.30;99.90;;;;;;5022810;28;19936;-66
2022/11/16 09:05:43;;;;;;;;;;;10.30;99.90;;;;;;5045503;28;19922;-66
2022/11/16 09:08:10;;;;;;;;;;;10.30;99.90;;;;;;5043082;28;19936;-66
2022/11/16 09:10:36;;;;;;;;;;;10.40;99.90;;;;;;5017763;28;19925;-66
2022/11/16 09:13:01;;;;;;;;;;;10.40;99.90;;;;;;5033415;28;20011;-66
2022/11/16 09:15:27;;;;;;;;;;;10.50;99.90;;;;;;5016997;28;19928;-66
2022/11/16 09:17:53;;;;;;;;;;;10.50;99.90;;;;;;5034013;28;19921;-66
2022/11/16 09:20:19;;;;;;;;;;;10.50;99.90;;;;;;5024826;28;19921;-66
2022/11/16 09:22:44;;;;;;;;;;;10.60;99.90;;;;;;5028749;28;19943;-66
2022/11/16 09:25:10;;;;;;;;;;;10.60;99.90;;;;;;5015566;28;19928;-66
2022/11/16 09:27:36;;;;;;;;;;;10.70;99.90;;;;;;5023461;28;19951;-66
2022/11/16 09:30:02;;;;;;;;;;;10.70;99.90;;;;;;5047534;28;19972;-65
2022/11/16 09:32:27;;;;;;;;;;;10.80;99.90;;;;;;5033562;28;19960;-65
2022/11/16 09:34:53;;;;;;;;;;;10.80;99.90;;;;;;5035641;28;19921;-66
2022/11/16 09:37:18;;;;;;;;;;;10.90;99.90;;;;;;5037065;28;19928;-66
2022/11/16 09:39:44;;;;;;;;;;;10.90;99.90;;;;;;5035438;28;19991;-66
2022/11/16 09:42:12;;;;;;;;;;;11.00;99.90;;;;;;5033913;28;20012;-65
2022/11/16 09:44:44;;;;;;;;;;;11.10;99.90;;;;;;5032414;28;20373;-65
2022/11/16 09:47:17;;;;;;;;;;;11.10;99.90;;;;;;5027252;28;19929;-65
2022/11/16 09:49:45;;;;;;;;;;;11.20;99.90;;;;;;5034467;28;19925;-65
2022/11/16 09:52:30;;;;;;;;;;;11.30;99.90;;;;;;5030568;28;20011;-66
2022/11/16 09:54:56;;;;;;;;;;;11.40;99.90;;;;;;5020084;28;19925;-66
2022/11/16 09:57:25;;;;;;;;;;;11.40;99.90;;;;;;5030074;28;19932;-66
2022/11/16 09:59:53;;;;;;;;;;;11.60;99.90;;;;;;5009419;28;19925;-66
2022/11/16 10:02:42;;;;;;;;;;;11.40;99.90;;;;;;5023748;28;19925;-66
2022/11/16 10:05:26;;;;;;;;;;;11.50;99.90;;;;;;5027626;28;19932;-66
2022/11/16 10:08:03;;;;;;;;;;;11.50;99.90;;;;;;5034129;28;20063;-66
2022/11/16 10:10:28;;;;;;;;;;;11.60;99.90;;;;;;5033770;28;20282;-66
2022/11/16 10:13:09;;;;;;;;;;;11.60;99.90;;;;;;5038643;28;19921;-66
2022/11/16 10:15:34;;;;;;;;;;;11.70;99.90;;;;;;5032801;28;19921;-66
2022/11/16 10:18:12;;;;;;;;;;;11.70;99.90;;;;;;5042841;28;19927;-66
2022/11/16 10:20:48;;;;;;;;;;;11.60;99.90;;;;;;5026630;28;19921;-66
2022/11/16 10:23:25;;;;;;;;;;;11.60;99.90;;;;;;5047769;28;19925;-66
2022/11/16 10:26:11;;;;;;;;;;;11.70;99.90;;;;;;5024643;28;19925;-66
2022/11/16 10:28:45;;;;;;;;;;;11.70;99.90;;;;;;5021238;28;19936;-67
2022/11/16 10:31:12;;;;;;;;;;;11.80;99.90;;;;;;5024663;28;19925;-67
2022/11/16 10:33:38;;;;;;;;;;;11.80;99.90;;;;;;5028107;28;19921;-67
2022/11/16 10:36:08;;;;;;;;;;;11.80;99.90;;;;;;5008966;28;19932;-67
2022/11/16 10:38:34;;;;;;;;;;;11.90;99.90;;;;;;5033558;28;20019;-67
2022/11/16 10:41:18;;;;;;;;;;;11.90;99.90;;;;;;5027578;28;19987;-67
2022/11/16 10:43:44;;;;;;;;;;;12.00;99.90;;;;;;4993370;28;20347;-67
2022/11/16 10:46:15;;;;;;;;;;;12.10;99.90;;;;;;5010170;28;20014;-67
2022/11/16 10:48:53;;;;;;;;;;;12.10;99.90;;;;;;4999968;28;19935;-67
2022/11/16 10:51:18;;;;;;;;;;;12.20;99.90;;;;;;5016109;28;19925;-66
2022/11/16 10:53:44;;;;;;;;;;;12.30;99.90;;;;;;5022700;28;20417;-66
2022/11/16 10:56:19;;;;;;;;;;;12.30;99.90;;;;;;5038142;28;19921;-66
2022/11/16 10:58:51;;;;;;;;;;;12.40;99.90;;;;;;5002434;28;19928;-66
2022/11/16 11:01:30;;;;;;;;;;;12.50;99.90;;;;;;5036401;28;19948;-66
2022/11/16 11:03:56;;;;;;;;;;;12.60;99.90;;;;;;5015277;28;19964;-66
2022/11/16 11:06:23;;;;;;;;;;;12.70;99.90;;;;;;5036769;28;19976;-66
2022/11/16 11:08:49;;;;;;;;;;;12.60;99.90;;;;;;5035299;28;19939;-67
2022/11/16 11:14:10;;;;;;;;;;;12.60;99.90;;;;;;5033966;28;19920;-67
2022/11/16 11:16:36;;;;;;;;;;;12.60;99.90;;;;;;5026035;28;20266;-67
2022/11/16 11:19:34;;;;;;;;;;;12.50;99.90;;;;;;4998685;28;20012;-67
2022/11/16 11:22:00;;;;;;;;;;;12.40;99.90;;;;;;4989497;28;19920;-67
2022/11/16 11:24:27;;;;;;;;;;;12.30;99.90;;;;;;5038115;28;19920;-67
2022/11/16 11:26:54;;;;;;;;;;;12.20;99.90;;;;;;5037741;28;19924;-67
2022/11/16 11:29:19;;;;;;;;;;;12.10;99.90;;;;;;5022426;28;19925;-67
2022/11/16 11:31:47;;;;;;;;;;;12.00;99.90;;;;;;5018043;28;20359;-66
2022/11/16 11:34:26;;;;;;;;;;;12.10;99.90;;;;;;5045003;28;19924;-66
2022/11/16 11:36:54;;;;;;;;;;;12.10;99.90;;;;;;5052367;28;19924;-66
2022/11/16 11:39:19;;;;;;;;;;;12.10;99.90;;;;;;5046216;28;19920;-66
2022/11/16 11:41:47;;;;;;;;;;;12.10;99.90;;;;;;5038081;28;19927;-67
2022/11/16 11:44:16;;;;;;;;;;;12.10;99.90;;;;;;5041862;28;20007;-67
2022/11/16 11:47:02;;;;;;;;;;;12.10;99.90;;;;;;5036699;28;19931;-67
2022/11/16 11:49:33;;;;;;;;;;;12.10;99.90;;;;;;5017327;28;19925;-67
2022/11/16 11:52:02;;;;;;;;;;;12.10;99.90;;;;;;5046441;28;19932;-67
2022/11/16 11:54:30;;;;;;;;;;;12.10;99.90;;;;;;5035545;28;19921;-67
2022/11/16 11:56:56;;;;;;;;;;;12.20;99.90;;;;;;5037755;28;19921;-67
2022/11/16 11:59:22;;;;;;;;;;;12.30;99.90;;;;;;5029329;28;19979;-67
2022/11/16 12:02:06;;;;;;;;;;;12.40;99.90;;;;;;5036512;28;19921;-67
2022/11/16 12:04:32;;;;;;;;;;;12.40;99.90;;;;;;5037132;28;19924;-67
2022/11/16 12:07:16;;;;;;;;;;;12.50;99.90;;;;;;5039135;28;20355;-67
2022/11/16 12:09:56;;;;;;;;;;;12.50;99.90;;;;;;5034888;28;19925;-67
2022/11/16 12:12:41;;;;;;;;;;;12.60;99.90;;;;;;5053282;28;19974;-67
2022/11/16 12:15:09;;;;;;;;;;;12.70;99.90;;;;;;5036706;28;20405;-67
2022/11/16 12:17:42;;;;;;;;;;;12.90;99.90;;;;;;5054900;28;19921;-67
2022/11/16 12:20:08;;;;;;;;;;;;;;;;;;5053598;28;20385;-67
2022/11/16 12:22:33;;;;;;;;;;;;;;;;;;5053293;28;19921;-67
2022/11/16 12:25:06;;;;;;;;;;;13.20;99.90;;;;;;5054500;28;20015;-67
2022/11/16 12:27:43;;;;;;;;;;;13.30;99.90;;;;;;5054779;28;19925;-67
2022/11/16 12:30:09;;;;;;;;;;;;;;;;;;5036600;28;20454;-67
2022/11/16 12:32:35;;;;;;;;;;;;;;;;;;5037277;28;20007;-67
2022/11/16 12:35:19;;;;;;;;;;;13.10;99.90;;;;;;5036827;28;19928;-67
2022/11/16 12:37:52;;;;;;;;;;;13.10;99.90;;;;;;5054200;28;19921;-67
2022/11/16 12:40:28;;;;;;;;;;;13.00;99.90;;;;;;5052471;28;20413;-67
2022/11/16 12:42:53;;;;;;;;;;;;;;;;;;5034846;28;19925;-67
2022/11/16 12:45:19;;;;;;;;;;;13.10;99.90;;;;;;5053292;28;20278;-67
2022/11/16 12:47:53;;;;;;;;;;;13.10;99.90;;;;;;5053746;28;19928;-67
2022/11/16 12:50:19;;;;;;;;;;;;;;;;;;5054378;28;19925;-67
2022/11/16 12:53:04;;;;;;;;;;;13.10;99.90;;;;;;5054347;28;19948;-67
2022/11/16 12:55:29;;;;;;;;;;;13.10;99.90;;;;;;5054586;28;19928;-67
2022/11/16 12:58:06;;;;;;;;;;;13.00;99.90;;;;;;5037142;28;19922;-67
2022/11/16 13:00:38;;;;;;;;;;;12.90;99.90;;;;;;5036278;28;19999;-67
2022/11/16 13:03:15;;;;;;;;;;;12.90;99.90;;;;;;5036734;28;19944;-67
2022/11/16 13:05:41;;;;;;;;;;;12.80;99.90;;;;;;5054212;28;19970;-67
2022/11/16 13:08:16;;;;;;;;;;;12.80;99.90;;;;;;5007899;28;20031;-67
2022/11/16 13:10:44;;;;;;;;;;;12.80;99.90;;;;;;5034266;28;19932;-67
2022/11/16 13:13:21;;;;;;;;;;;12.70;99.90;;;;;;5052265;28;19920;-67
2022/11/16 13:15:47;;;;;;;;;;;12.60;99.90;;;;;;5034457;28;20421;-67
2022/11/16 13:18:16;;;;;;;;;;;12.60;99.90;;;;;;5017377;28;19921;-67
2022/11/16 13:21:00;;;;;;;;;;;12.60;99.90;;;;;;5052012;28;19925;-67
2022/11/16 13:23:34;;;;;;;;;;;12.50;99.90;;;;;;5054170;28;19927;-67
2022/11/16 13:26:09;;;;;;;;;;;12.50;99.90;;;;;;5032362;28;20379;-67
2022/11/16 13:28:40;;;;;;;;;;;12.50;99.90;;;;;;5016487;28;19930;-67
2022/11/16 13:31:10;;;;;;;;;;;12.40;99.90;;;;;;5015942;28;19992;-67
2022/11/16 13:33:39;;;;;;;;;;;12.30;99.90;;;;;;5033776;28;19921;-67
2022/11/16 13:36:23;;;;;;;;;;;12.20;99.90;;;;;;5034845;28;19991;-67
2022/11/16 13:38:51;;;;;;;;;;;12.20;99.90;;;;;;5053873;28;20001;-67
2022/11/16 13:41:27;;;;;;;;;;;12.10;99.90;;;;;;5036073;28;19921;-67
2022/11/16 13:43:52;;;;;;;;;;;12.00;99.90;;;;;;5053964;28;19972;-67
2022/11/16 13:46:18;;;;;;;;;;;11.90;99.90;;;;;;5053815;28;20374;-67
2022/11/16 13:48:44;;;;;;;;;;;11.80;99.90;;;;;;5032906;28;20343;-67
2022/11/16 13:51:18;;;;;;;;;;;11.80;99.90;;;;;;5016035;28;19925;-67
2022/11/16 13:53:51;;;;;;;;;;;11.70;99.90;;;;;;5049075;28;19925;-67
2022/11/16 13:56:17;;;;;;;;;;;11.60;99.90;;;;;;5025351;28;19921;-67
2022/11/16 13:58:44;;;;;;;;;;;11.50;99.90;;;;;;5050287;28;19967;-67
2022/11/16 14:01:13;;;;;;;;;;;11.50;99.90;;;;;;5036486;28;19921;-67
2022/11/16 14:03:42;;;;;;;;;;;11.50;99.90;;;;;;5053719;28;19927;-67
2022/11/16 14:06:23;;;;;;;;;;;11.40;99.90;;;;;;5056288;28;19975;-67
2022/11/16 14:08:52;;;;;;;;;;;11.40;99.90;;;;;;5047078;28;19928;-67
2022/11/16 14:11:37;;;;;;;;;;;11.40;99.90;;;;;;5024186;28;19964;-68
2022/11/16 14:14:10;;;;;;;;;;;11.30;99.90;;;;;;5023992;28;19928;-68
2022/11/16 14:16:43;;;;;;;;;;;11.30;99.90;;;;;;5036415;28;20422;-68
2022/11/16 14:19:27;;;;;;;;;;;11.20;99.90;;;;;;5038887;28;19932;-68
2022/11/16 14:21:58;;;;;;;;;;;11.20;99.90;;;;;;5036141;28;19921;-68
2022/11/16 14:24:27;;;;;;;;;;;11.20;99.90;;;;;;5021060;28;19928;-68
2022/11/16 14:27:04;;;;;;;;;;;11.20;99.90;;;;;;5037717;28;19926;-69
2022/11/16 14:29:49;;;;;;;;;;;11.20;99.90;;;;;;5022522;28;20282;-68
2022/11/16 14:32:22;;;;;;;;;;;11.10;99.90;;;;;;5024996;28;19921;-68
2022/11/16 14:34:49;;;;;;;;;;;11.10;99.90;;;;;;5016088;28;20000;-68
2022/11/16 14:37:20;;;;;;;;;;;11.10;99.90;;;;;;5049627;28;19940;-68
2022/11/16 14:39:46;;;;;;;;;;;11.10;99.90;;;;;;5010821;28;19921;-68
2022/11/16 14:42:17;;;;;;;;;;;11.00;99.90;;;;;;5030626;28;20318;-68
2022/11/16 14:44:43;;;;;;;;;;;11.00;99.90;;;;;;5044022;28;19932;-68
2022/11/16 14:47:24;;;;;;;;;;;11.00;99.90;;;;;;5036372;28;19925;-68
2022/11/16 14:49:51;;;;;;;;;;;10.90;99.90;;;;;;5015819;28;20379;-68
2022/11/16 14:52:19;;;;;;;;;;;10.90;99.90;;;;;;5038935;28;19968;-68
2022/11/16 14:54:53;;;;;;;;;;;10.90;99.90;;;;;;5016147;28;19921;-68
2022/11/16 14:57:20;;;;;;;;;;;10.80;99.90;;;;;;5035865;28;20558;-68
2022/11/16 14:59:46;;;;;;;;;;;10.70;99.90;;;;;;5025689;28;20450;-69
2022/11/16 15:02:25;;;;;;;;;;;10.70;99.90;;;;;;5024094;28;20008;-68
2022/11/16 15:04:51;;;;;;;;;;;10.60;99.90;;;;;;5014916;28;19921;-68
2022/11/16 15:07:17;;;;;;;;;;;10.60;99.90;;;;;;5022452;28;19947;-68
2022/11/16 15:09:46;;;;;;;;;;;10.50;99.90;;;;;;5023519;28;19925;-68
2022/11/16 15:14:59;;;;;;;;;;;10.40;99.90;;;;;;5011738;28;19921;-68